sensor_id;sensor_type;location;lat;lon;timestamp;P1;durP1;ratioP1;P2;durP2;ratioP2
43813;SDS011;29669;55.706;37.656;2023-08-01T00:01:10;29.02;;;10.50;;
43813;SDS011;29669;55.706;37.656;2023-08-01T00:03:37;20.05;;;8.65;;
43813;SDS011;29669;55.706;37.656;2023-08-01T00:06:05;16.83;;;9.18;;
43813;SDS011;29669;55.706;37.656;2023-08-01T00:08:33;22.75;;;9.50;;
43813;SDS011;29669;55.706;37.656;2023-08-01T00:11:01;25.17;;;9.45;;
43813;SDS011;29669;55.706;37.656;2023-08-01T00:13:28;17.52;;;8.45;;
43813;SDS011;29669;55.706;37.656;2023-08-01T00:15:56;21.58;;;9.45;;
43813;SDS011;29669;55.706;37.656;2023-08-01T00:18:44;16.58;;;8.48;;
43813;SDS011;29669;55.706;37.656;2023-08-01T00:21:11;17.00;;;9.43;;
43813;SDS011;29669;55.706;37.656;2023-08-01T00:23:39;15.32;;;9.07;;
43813;SDS011;29669;55.706;37.656;2023-08-01T00:26:06;18.40;;;8.80;;
43813;SDS011;29669;55.706;37.656;2023-08-01T00:28:34;18.95;;;9.50;;
43813;SDS011;29669;55.706;37.656;2023-08-01T00:31:05;22.63;;;9.27;;
43813;SDS011;29669;55.706;37.656;2023-08-01T00:33:34;21.13;;;9.90;;
43813;SDS011;29669;55.706;37.656;2023-08-01T00:36:02;17.60;;;9.32;;
43813;SDS011;29669;55.706;37.656;2023-08-01T00:38:30;17.77;;;10.40;;
43813;SDS011;29669;55.706;37.656;2023-08-01T00:40:57;19.15;;;9.77;;
43813;SDS011;29669;55.706;37.656;2023-08-01T00:43:25;22.65;;;10.18;;
43813;SDS011;29669;55.706;37.656;2023-08-01T00:45:53;18.98;;;9.02;;
43813;SDS011;29669;55.706;37.656;2023-08-01T00:48:26;17.60;;;8.80;;
43813;SDS011;29669;55.706;37.656;2023-08-01T00:50:57;18.17;;;9.95;;
43813;SDS011;29669;55.706;37.656;2023-08-01T00:53:26;19.25;;;9.25;;
43813;SDS011;29669;55.706;37.656;2023-08-01T00:55:54;19.10;;;8.95;;
43813;SDS011;29669;55.706;37.656;2023-08-01T00:58:23;19.95;;;9.65;;
43813;SDS011;29669;55.706;37.656;2023-08-01T01:00:50;23.75;;;9.60;;
43813;SDS011;29669;55.706;37.656;2023-08-01T01:03:18;20.85;;;9.45;;
43813;SDS011;29669;55.706;37.656;2023-08-01T01:05:48;27.88;;;9.77;;
43813;SDS011;29669;55.706;37.656;2023-08-01T01:08:20;17.85;;;9.98;;
43813;SDS011;29669;55.706;37.656;2023-08-01T01:10:48;24.40;;;9.90;;
43813;SDS011;29669;55.706;37.656;2023-08-01T01:13:16;20.30;;;9.85;;
43813;SDS011;29669;55.706;37.656;2023-08-01T01:15:44;23.80;;;9.35;;
43813;SDS011;29669;55.706;37.656;2023-08-01T01:18:11;20.23;;;9.35;;
43813;SDS011;29669;55.706;37.656;2023-08-01T01:20:39;24.13;;;9.85;;
43813;SDS011;29669;55.706;37.656;2023-08-01T01:23:07;19.17;;;9.38;;
43813;SDS011;29669;55.706;37.656;2023-08-01T01:25:36;20.33;;;9.27;;
43813;SDS011;29669;55.706;37.656;2023-08-01T01:28:06;19.73;;;10.05;;
43813;SDS011;29669;55.706;37.656;2023-08-01T01:30:34;21.23;;;9.73;;
43813;SDS011;29669;55.706;37.656;2023-08-01T01:33:03;22.85;;;10.35;;
43813;SDS011;29669;55.706;37.656;2023-08-01T01:35:33;17.45;;;8.88;;
43813;SDS011;29669;55.706;37.656;2023-08-01T01:38:02;25.30;;;9.88;;
43813;SDS011;29669;55.706;37.656;2023-08-01T01:40:33;23.95;;;9.93;;
43813;SDS011;29669;55.706;37.656;2023-08-01T01:43:01;28.35;;;9.80;;
43813;SDS011;29669;55.706;37.656;2023-08-01T01:45:29;24.33;;;10.45;;
43813;SDS011;29669;55.706;37.656;2023-08-01T01:47:57;19.92;;;9.90;;
43813;SDS011;29669;55.706;37.656;2023-08-01T01:50:24;24.20;;;9.65;;
43813;SDS011;29669;55.706;37.656;2023-08-01T01:52:52;26.27;;;9.75;;
43813;SDS011;29669;55.706;37.656;2023-08-01T01:55:19;20.08;;;10.50;;
43813;SDS011;29669;55.706;37.656;2023-08-01T01:57:48;23.80;;;9.60;;
43813;SDS011;29669;55.706;37.656;2023-08-01T02:00:16;26.20;;;10.45;;
43813;SDS011;29669;55.706;37.656;2023-08-01T02:02:43;29.85;;;11.55;;
43813;SDS011;29669;55.706;37.656;2023-08-01T02:05:11;26.67;;;11.15;;
43813;SDS011;29669;55.706;37.656;2023-08-01T02:07:39;28.77;;;10.88;;
43813;SDS011;29669;55.706;37.656;2023-08-01T02:10:06;22.50;;;9.40;;
43813;SDS011;29669;55.706;37.656;2023-08-01T02:12:36;34.08;;;12.38;;
43813;SDS011;29669;55.706;37.656;2023-08-01T02:15:07;20.52;;;9.30;;
43813;SDS011;29669;55.706;37.656;2023-08-01T02:17:35;28.70;;;10.40;;
43813;SDS011;29669;55.706;37.656;2023-08-01T02:20:22;19.85;;;9.32;;
43813;SDS011;29669;55.706;37.656;2023-08-01T02:22:50;20.58;;;9.20;;
43813;SDS011;29669;55.706;37.656;2023-08-01T02:25:18;25.58;;;10.30;;
43813;SDS011;29669;55.706;37.656;2023-08-01T02:27:46;20.42;;;9.63;;
43813;SDS011;29669;55.706;37.656;2023-08-01T02:30:15;31.63;;;11.52;;
43813;SDS011;29669;55.706;37.656;2023-08-01T02:32:43;23.45;;;9.57;;
43813;SDS011;29669;55.706;37.656;2023-08-01T02:35:10;23.92;;;10.23;;
43813;SDS011;29669;55.706;37.656;2023-08-01T02:37:38;24.40;;;10.93;;
43813;SDS011;29669;55.706;37.656;2023-08-01T02:40:08;23.75;;;11.40;;
43813;SDS011;29669;55.706;37.656;2023-08-01T02:42:36;25.73;;;10.82;;
43813;SDS011;29669;55.706;37.656;2023-08-01T02:45:04;26.35;;;11.18;;
43813;SDS011;29669;55.706;37.656;2023-08-01T02:47:32;18.30;;;10.32;;
43813;SDS011;29669;55.706;37.656;2023-08-01T02:50:00;19.52;;;11.07;;
43813;SDS011;29669;55.706;37.656;2023-08-01T02:52:30;25.13;;;10.65;;
43813;SDS011;29669;55.706;37.656;2023-08-01T02:54:58;23.35;;;10.02;;
43813;SDS011;29669;55.706;37.656;2023-08-01T02:57:26;24.42;;;11.27;;
43813;SDS011;29669;55.706;37.656;2023-08-01T02:59:53;23.70;;;10.77;;
43813;SDS011;29669;55.706;37.656;2023-08-01T03:02:21;30.70;;;12.13;;
43813;SDS011;29669;55.706;37.656;2023-08-01T03:04:48;31.08;;;12.95;;
43813;SDS011;29669;55.706;37.656;2023-08-01T03:07:17;29.27;;;12.75;;
43813;SDS011;29669;55.706;37.656;2023-08-01T03:09:44;24.80;;;13.38;;
43813;SDS011;29669;55.706;37.656;2023-08-01T03:12:13;26.45;;;12.93;;
43813;SDS011;29669;55.706;37.656;2023-08-01T03:14:41;29.88;;;14.27;;
43813;SDS011;29669;55.706;37.656;2023-08-01T03:17:10;28.10;;;14.50;;
43813;SDS011;29669;55.706;37.656;2023-08-01T03:19:38;28.25;;;15.70;;
43813;SDS011;29669;55.706;37.656;2023-08-01T03:22:06;32.75;;;15.10;;
43813;SDS011;29669;55.706;37.656;2023-08-01T03:24:34;34.92;;;16.02;;
43813;SDS011;29669;55.706;37.656;2023-08-01T03:27:02;35.10;;;15.02;;
43813;SDS011;29669;55.706;37.656;2023-08-01T03:29:30;31.27;;;15.30;;
43813;SDS011;29669;55.706;37.656;2023-08-01T03:31:58;34.33;;;15.10;;
43813;SDS011;29669;55.706;37.656;2023-08-01T03:34:26;29.65;;;16.10;;
43813;SDS011;29669;55.706;37.656;2023-08-01T03:36:54;23.70;;;13.75;;
43813;SDS011;29669;55.706;37.656;2023-08-01T03:39:21;27.13;;;13.23;;
43813;SDS011;29669;55.706;37.656;2023-08-01T03:41:49;34.65;;;15.40;;
43813;SDS011;29669;55.706;37.656;2023-08-01T03:44:17;28.80;;;14.73;;
43813;SDS011;29669;55.706;37.656;2023-08-01T03:46:44;30.90;;;13.52;;
43813;SDS011;29669;55.706;37.656;2023-08-01T03:49:13;29.20;;;14.10;;
43813;SDS011;29669;55.706;37.656;2023-08-01T03:51:41;25.02;;;13.15;;
43813;SDS011;29669;55.706;37.656;2023-08-01T03:54:08;26.90;;;14.65;;
43813;SDS011;29669;55.706;37.656;2023-08-01T03:56:40;29.98;;;14.60;;
43813;SDS011;29669;55.706;37.656;2023-08-01T03:59:11;27.35;;;14.68;;
43813;SDS011;29669;55.706;37.656;2023-08-01T04:01:40;28.10;;;13.40;;
43813;SDS011;29669;55.706;37.656;2023-08-01T04:04:08;23.83;;;12.57;;
43813;SDS011;29669;55.706;37.656;2023-08-01T04:06:36;29.08;;;14.27;;
43813;SDS011;29669;55.706;37.656;2023-08-01T04:09:04;26.20;;;12.68;;
43813;SDS011;29669;55.706;37.656;2023-08-01T04:11:33;24.67;;;14.77;;
43813;SDS011;29669;55.706;37.656;2023-08-01T04:14:01;23.13;;;13.20;;
43813;SDS011;29669;55.706;37.656;2023-08-01T04:16:29;23.92;;;13.10;;
43813;SDS011;29669;55.706;37.656;2023-08-01T04:18:56;20.00;;;12.80;;
43813;SDS011;29669;55.706;37.656;2023-08-01T04:21:24;22.13;;;12.48;;
43813;SDS011;29669;55.706;37.656;2023-08-01T04:23:52;32.60;;;13.30;;
43813;SDS011;29669;55.706;37.656;2023-08-01T04:26:20;26.42;;;12.98;;
43813;SDS011;29669;55.706;37.656;2023-08-01T04:28:47;25.00;;;12.60;;
43813;SDS011;29669;55.706;37.656;2023-08-01T04:31:16;33.17;;;13.50;;
43813;SDS011;29669;55.706;37.656;2023-08-01T04:33:44;26.70;;;12.18;;
43813;SDS011;29669;55.706;37.656;2023-08-01T04:36:12;28.48;;;12.82;;
43813;SDS011;29669;55.706;37.656;2023-08-01T04:38:40;20.52;;;11.50;;
43813;SDS011;29669;55.706;37.656;2023-08-01T04:41:08;30.05;;;14.43;;
43813;SDS011;29669;55.706;37.656;2023-08-01T04:43:36;21.15;;;12.50;;
43813;SDS011;29669;55.706;37.656;2023-08-01T04:46:03;24.10;;;14.02;;
43813;SDS011;29669;55.706;37.656;2023-08-01T04:48:31;25.30;;;12.63;;
43813;SDS011;29669;55.706;37.656;2023-08-01T04:50:59;26.75;;;11.95;;
43813;SDS011;29669;55.706;37.656;2023-08-01T04:53:28;18.38;;;11.15;;
43813;SDS011;29669;55.706;37.656;2023-08-01T04:55:57;24.55;;;11.68;;
43813;SDS011;29669;55.706;37.656;2023-08-01T04:58:26;24.00;;;10.63;;
43813;SDS011;29669;55.706;37.656;2023-08-01T05:00:54;15.52;;;8.73;;
43813;SDS011;29669;55.706;37.656;2023-08-01T05:03:21;22.63;;;10.38;;
43813;SDS011;29669;55.706;37.656;2023-08-01T05:05:49;14.30;;;8.52;;
43813;SDS011;29669;55.706;37.656;2023-08-01T05:08:17;26.92;;;11.52;;
43813;SDS011;29669;55.706;37.656;2023-08-01T05:10:45;16.98;;;10.55;;
43813;SDS011;29669;55.706;37.656;2023-08-01T05:13:13;21.45;;;10.13;;
43813;SDS011;29669;55.706;37.656;2023-08-01T05:15:40;15.80;;;10.88;;
43813;SDS011;29669;55.706;37.656;2023-08-01T05:18:11;15.68;;;9.05;;
43813;SDS011;29669;55.706;37.656;2023-08-01T05:20:38;20.02;;;10.05;;
43813;SDS011;29669;55.706;37.656;2023-08-01T05:23:06;21.35;;;9.68;;
43813;SDS011;29669;55.706;37.656;2023-08-01T05:25:34;15.65;;;8.43;;
43813;SDS011;29669;55.706;37.656;2023-08-01T05:28:02;21.10;;;9.18;;
43813;SDS011;29669;55.706;37.656;2023-08-01T05:30:29;20.35;;;8.43;;
43813;SDS011;29669;55.706;37.656;2023-08-01T05:32:57;14.70;;;8.07;;
43813;SDS011;29669;55.706;37.656;2023-08-01T05:35:25;16.10;;;7.78;;
43813;SDS011;29669;55.706;37.656;2023-08-01T05:37:54;17.08;;;8.30;;
43813;SDS011;29669;55.706;37.656;2023-08-01T05:40:22;10.00;;;6.60;;
43813;SDS011;29669;55.706;37.656;2023-08-01T05:43:00;15.05;;;7.18;;
43813;SDS011;29669;55.706;37.656;2023-08-01T05:49:31;13.52;;;7.60;;
43813;SDS011;29669;55.706;37.656;2023-08-01T05:51:59;9.35;;;6.85;;
43813;SDS011;29669;55.706;37.656;2023-08-01T05:54:27;15.73;;;6.68;;
43813;SDS011;29669;55.706;37.656;2023-08-01T05:56:55;11.27;;;6.07;;
43813;SDS011;29669;55.706;37.656;2023-08-01T05:59:23;10.32;;;6.78;;
43813;SDS011;29669;55.706;37.656;2023-08-01T06:01:50;12.07;;;6.18;;
43813;SDS011;29669;55.706;37.656;2023-08-01T06:04:18;7.38;;;5.28;;
43813;SDS011;29669;55.706;37.656;2023-08-01T06:06:47;11.07;;;5.47;;
43813;SDS011;29669;55.706;37.656;2023-08-01T06:09:14;10.82;;;5.85;;
43813;SDS011;29669;55.706;37.656;2023-08-01T06:11:42;13.55;;;5.78;;
43813;SDS011;29669;55.706;37.656;2023-08-01T06:14:10;16.50;;;5.90;;
43813;SDS011;29669;55.706;37.656;2023-08-01T06:16:38;11.98;;;5.30;;
43813;SDS011;29669;55.706;37.656;2023-08-01T06:19:14;9.70;;;5.22;;
43813;SDS011;29669;55.706;37.656;2023-08-01T06:21:51;13.00;;;5.10;;
43813;SDS011;29669;55.706;37.656;2023-08-01T06:24:29;11.73;;;6.40;;
43813;SDS011;29669;55.706;37.656;2023-08-01T06:27:01;9.77;;;5.38;;
43813;SDS011;29669;55.706;37.656;2023-08-01T06:29:29;10.88;;;5.60;;
43813;SDS011;29669;55.706;37.656;2023-08-01T06:32:00;9.32;;;5.20;;
43813;SDS011;29669;55.706;37.656;2023-08-01T06:34:28;8.98;;;6.05;;
43813;SDS011;29669;55.706;37.656;2023-08-01T06:36:56;15.13;;;6.95;;
43813;SDS011;29669;55.706;37.656;2023-08-01T06:39:24;14.70;;;5.93;;
43813;SDS011;29669;55.706;37.656;2023-08-01T06:41:54;12.52;;;5.57;;
43813;SDS011;29669;55.706;37.656;2023-08-01T06:44:26;9.65;;;6.07;;
43813;SDS011;29669;55.706;37.656;2023-08-01T06:46:56;10.82;;;6.15;;
43813;SDS011;29669;55.706;37.656;2023-08-01T06:49:30;6.70;;;5.13;;
43813;SDS011;29669;55.706;37.656;2023-08-01T06:52:01;10.38;;;5.35;;
43813;SDS011;29669;55.706;37.656;2023-08-01T06:54:31;11.45;;;5.50;;
43813;SDS011;29669;55.706;37.656;2023-08-01T06:57:09;11.77;;;5.25;;
43813;SDS011;29669;55.706;37.656;2023-08-01T06:59:37;20.63;;;6.47;;
43813;SDS011;29669;55.706;37.656;2023-08-01T07:02:05;6.78;;;5.15;;
43813;SDS011;29669;55.706;37.656;2023-08-01T07:04:36;8.68;;;5.70;;
43813;SDS011;29669;55.706;37.656;2023-08-01T07:07:05;13.93;;;5.55;;
43813;SDS011;29669;55.706;37.656;2023-08-01T07:09:34;14.15;;;5.57;;
43813;SDS011;29669;55.706;37.656;2023-08-01T07:12:02;11.70;;;5.20;;
43813;SDS011;29669;55.706;37.656;2023-08-01T07:14:32;9.95;;;4.75;;
43813;SDS011;29669;55.706;37.656;2023-08-01T07:17:00;11.32;;;5.30;;
43813;SDS011;29669;55.706;37.656;2023-08-01T07:19:28;18.95;;;5.75;;
43813;SDS011;29669;55.706;37.656;2023-08-01T07:21:55;7.45;;;4.45;;
43813;SDS011;29669;55.706;37.656;2023-08-01T07:24:25;19.73;;;5.72;;
43813;SDS011;29669;55.706;37.656;2023-08-01T07:26:55;12.05;;;4.85;;
43813;SDS011;29669;55.706;37.656;2023-08-01T07:29:23;11.25;;;7.07;;
43813;SDS011;29669;55.706;37.656;2023-08-01T07:31:51;9.32;;;5.00;;
43813;SDS011;29669;55.706;37.656;2023-08-01T07:34:20;24.45;;;5.72;;
43813;SDS011;29669;55.706;37.656;2023-08-01T07:36:50;8.70;;;4.78;;
43813;SDS011;29669;55.706;37.656;2023-08-01T07:39:18;14.85;;;5.18;;
43813;SDS011;29669;55.706;37.656;2023-08-01T07:41:46;30.40;;;6.05;;
43813;SDS011;29669;55.706;37.656;2023-08-01T07:44:14;29.45;;;6.40;;
43813;SDS011;29669;55.706;37.656;2023-08-01T07:46:42;11.77;;;4.43;;
43813;SDS011;29669;55.706;37.656;2023-08-01T07:49:09;11.20;;;4.57;;
43813;SDS011;29669;55.706;37.656;2023-08-01T07:51:37;14.27;;;5.32;;
43813;SDS011;29669;55.706;37.656;2023-08-01T07:54:05;7.38;;;4.85;;
43813;SDS011;29669;55.706;37.656;2023-08-01T07:56:33;6.93;;;4.45;;
43813;SDS011;29669;55.706;37.656;2023-08-01T07:59:00;6.50;;;5.15;;
43813;SDS011;29669;55.706;37.656;2023-08-01T08:01:28;9.98;;;3.90;;
43813;SDS011;29669;55.706;37.656;2023-08-01T08:03:56;9.23;;;4.30;;
43813;SDS011;29669;55.706;37.656;2023-08-01T08:06:25;9.13;;;4.72;;
43813;SDS011;29669;55.706;37.656;2023-08-01T08:08:53;5.40;;;4.78;;
43813;SDS011;29669;55.706;37.656;2023-08-01T08:11:21;11.55;;;4.63;;
43813;SDS011;29669;55.706;37.656;2023-08-01T08:13:50;8.60;;;5.10;;
43813;SDS011;29669;55.706;37.656;2023-08-01T08:16:18;5.70;;;4.00;;
43813;SDS011;29669;55.706;37.656;2023-08-01T08:18:46;7.32;;;4.10;;
43813;SDS011;29669;55.706;37.656;2023-08-01T08:21:14;6.72;;;4.32;;
43813;SDS011;29669;55.706;37.656;2023-08-01T08:23:45;14.57;;;4.50;;
43813;SDS011;29669;55.706;37.656;2023-08-01T08:26:15;6.63;;;4.07;;
43813;SDS011;29669;55.706;37.656;2023-08-01T08:28:43;6.25;;;3.30;;
43813;SDS011;29669;55.706;37.656;2023-08-01T08:31:11;4.15;;;3.08;;
43813;SDS011;29669;55.706;37.656;2023-08-01T08:33:39;10.55;;;4.25;;
43813;SDS011;29669;55.706;37.656;2023-08-01T08:36:07;4.07;;;3.35;;
43813;SDS011;29669;55.706;37.656;2023-08-01T08:38:35;72.03;;;11.35;;
43813;SDS011;29669;55.706;37.656;2023-08-01T08:41:10;19.60;;;3.85;;
43813;SDS011;29669;55.706;37.656;2023-08-01T08:43:41;9.88;;;3.88;;
43813;SDS011;29669;55.706;37.656;2023-08-01T08:46:09;5.50;;;3.13;;
43813;SDS011;29669;55.706;37.656;2023-08-01T08:48:40;8.02;;;3.05;;
43813;SDS011;29669;55.706;37.656;2023-08-01T08:51:09;4.65;;;3.33;;
43813;SDS011;29669;55.706;37.656;2023-08-01T08:53:41;4.70;;;3.60;;
43813;SDS011;29669;55.706;37.656;2023-08-01T08:56:23;7.13;;;3.55;;
43813;SDS011;29669;55.706;37.656;2023-08-01T08:58:53;7.10;;;3.67;;
43813;SDS011;29669;55.706;37.656;2023-08-01T09:01:28;5.65;;;3.85;;
43813;SDS011;29669;55.706;37.656;2023-08-01T09:04:05;11.95;;;4.05;;
43813;SDS011;29669;55.706;37.656;2023-08-01T09:06:44;10.02;;;4.63;;
43813;SDS011;29669;55.706;37.656;2023-08-01T09:09:16;12.27;;;4.47;;
43813;SDS011;29669;55.706;37.656;2023-08-01T09:11:48;9.38;;;3.58;;
43813;SDS011;29669;55.706;37.656;2023-08-01T09:14:19;12.63;;;4.80;;
43813;SDS011;29669;55.706;37.656;2023-08-01T09:16:48;7.07;;;4.85;;
43813;SDS011;29669;55.706;37.656;2023-08-01T09:19:18;18.88;;;5.15;;
43813;SDS011;29669;55.706;37.656;2023-08-01T09:21:53;11.68;;;3.70;;
43813;SDS011;29669;55.706;37.656;2023-08-01T09:24:25;9.90;;;4.75;;
43813;SDS011;29669;55.706;37.656;2023-08-01T09:27:02;13.68;;;4.80;;
43813;SDS011;29669;55.706;37.656;2023-08-01T09:29:32;8.93;;;4.85;;
43813;SDS011;29669;55.706;37.656;2023-08-01T09:32:10;12.20;;;4.10;;
43813;SDS011;29669;55.706;37.656;2023-08-01T09:34:40;7.65;;;4.20;;
43813;SDS011;29669;55.706;37.656;2023-08-01T09:37:12;12.18;;;4.47;;
43813;SDS011;29669;55.706;37.656;2023-08-01T09:39:40;8.77;;;4.30;;
43813;SDS011;29669;55.706;37.656;2023-08-01T09:42:10;6.95;;;4.70;;
43813;SDS011;29669;55.706;37.656;2023-08-01T09:44:38;14.35;;;4.55;;
43813;SDS011;29669;55.706;37.656;2023-08-01T09:47:13;6.10;;;4.00;;
43813;SDS011;29669;55.706;37.656;2023-08-01T09:49:49;9.05;;;4.15;;
43813;SDS011;29669;55.706;37.656;2023-08-01T09:52:28;11.25;;;4.28;;
43813;SDS011;29669;55.706;37.656;2023-08-01T09:54:59;7.95;;;4.95;;
43813;SDS011;29669;55.706;37.656;2023-08-01T09:57:29;5.75;;;4.20;;
43813;SDS011;29669;55.706;37.656;2023-08-01T09:59:58;12.60;;;4.18;;
43813;SDS011;29669;55.706;37.656;2023-08-01T10:02:28;9.02;;;4.45;;
43813;SDS011;29669;55.706;37.656;2023-08-01T10:04:58;12.07;;;4.68;;
43813;SDS011;29669;55.706;37.656;2023-08-01T10:07:30;6.43;;;4.45;;
43813;SDS011;29669;55.706;37.656;2023-08-01T10:10:00;9.93;;;4.70;;
43813;SDS011;29669;55.706;37.656;2023-08-01T10:12:31;15.50;;;6.05;;
43813;SDS011;29669;55.706;37.656;2023-08-01T10:15:01;5.72;;;3.97;;
43813;SDS011;29669;55.706;37.656;2023-08-01T10:17:31;9.52;;;4.72;;
43813;SDS011;29669;55.706;37.656;2023-08-01T10:20:05;10.75;;;4.00;;
43813;SDS011;29669;55.706;37.656;2023-08-01T10:22:33;4.85;;;3.78;;
43813;SDS011;29669;55.706;37.656;2023-08-01T10:25:10;11.25;;;4.10;;
43813;SDS011;29669;55.706;37.656;2023-08-01T10:27:39;4.55;;;4.15;;
43813;SDS011;29669;55.706;37.656;2023-08-01T10:30:09;8.73;;;4.88;;
43813;SDS011;29669;55.706;37.656;2023-08-01T10:32:39;3.80;;;3.38;;
43813;SDS011;29669;55.706;37.656;2023-08-01T10:35:08;8.68;;;4.45;;
43813;SDS011;29669;55.706;37.656;2023-08-01T10:37:43;9.05;;;4.47;;
43813;SDS011;29669;55.706;37.656;2023-08-01T10:40:16;7.22;;;4.13;;
43813;SDS011;29669;55.706;37.656;2023-08-01T10:42:46;9.25;;;5.13;;
43813;SDS011;29669;55.706;37.656;2023-08-01T10:45:21;10.23;;;4.10;;
43813;SDS011;29669;55.706;37.656;2023-08-01T10:48:07;8.52;;;4.90;;
43813;SDS011;29669;55.706;37.656;2023-08-01T10:50:36;6.45;;;3.80;;
43813;SDS011;29669;55.706;37.656;2023-08-01T10:53:07;12.02;;;4.60;;
43813;SDS011;29669;55.706;37.656;2023-08-01T10:55:40;7.28;;;3.90;;
43813;SDS011;29669;55.706;37.656;2023-08-01T10:58:15;13.30;;;4.72;;
43813;SDS011;29669;55.706;37.656;2023-08-01T11:00:56;5.78;;;4.03;;
43813;SDS011;29669;55.706;37.656;2023-08-01T11:03:37;3.75;;;3.45;;
43813;SDS011;29669;55.706;37.656;2023-08-01T11:06:26;3.88;;;3.42;;
43813;SDS011;29669;55.706;37.656;2023-08-01T11:09:22;5.47;;;3.10;;
43813;SDS011;29669;55.706;37.656;2023-08-01T11:12:42;9.98;;;4.70;;
43813;SDS011;29669;55.706;37.656;2023-08-01T11:15:17;5.60;;;3.70;;
43813;SDS011;29669;55.706;37.656;2023-08-01T11:17:46;12.20;;;4.70;;
43813;SDS011;29669;55.706;37.656;2023-08-01T11:20:18;6.55;;;4.20;;
43813;SDS011;29669;55.706;37.656;2023-08-01T11:23:10;6.57;;;3.83;;
43813;SDS011;29669;55.706;37.656;2023-08-01T11:25:52;11.30;;;4.55;;
43813;SDS011;29669;55.706;37.656;2023-08-01T11:28:29;6.70;;;4.15;;
43813;SDS011;29669;55.706;37.656;2023-08-01T11:34:25;6.13;;;4.35;;
43813;SDS011;29669;55.706;37.656;2023-08-01T11:37:34;16.58;;;4.63;;
43813;SDS011;29669;55.706;37.656;2023-08-01T11:40:08;9.63;;;4.47;;
43813;SDS011;29669;55.706;37.656;2023-08-01T11:42:53;6.85;;;3.80;;
43813;SDS011;29669;55.706;37.656;2023-08-01T11:45:31;7.60;;;4.25;;
43813;SDS011;29669;55.706;37.656;2023-08-01T11:47:59;8.82;;;4.10;;
43813;SDS011;29669;55.706;37.656;2023-08-01T11:50:30;5.78;;;4.07;;
43813;SDS011;29669;55.706;37.656;2023-08-01T11:53:01;10.98;;;4.70;;
43813;SDS011;29669;55.706;37.656;2023-08-01T11:55:42;10.68;;;3.78;;
43813;SDS011;29669;55.706;37.656;2023-08-01T11:58:31;5.72;;;3.90;;
43813;SDS011;29669;55.706;37.656;2023-08-01T12:01:15;6.93;;;3.50;;
43813;SDS011;29669;55.706;37.656;2023-08-01T12:03:48;5.88;;;4.20;;
43813;SDS011;29669;55.706;37.656;2023-08-01T12:06:21;6.78;;;4.20;;
43813;SDS011;29669;55.706;37.656;2023-08-01T12:08:54;5.18;;;4.05;;
43813;SDS011;29669;55.706;37.656;2023-08-01T12:11:33;7.38;;;3.28;;
43813;SDS011;29669;55.706;37.656;2023-08-01T12:14:01;5.85;;;4.55;;
43813;SDS011;29669;55.706;37.656;2023-08-01T12:16:39;9.25;;;4.82;;
43813;SDS011;29669;55.706;37.656;2023-08-01T12:19:16;7.32;;;3.75;;
43813;SDS011;29669;55.706;37.656;2023-08-01T12:21:45;5.38;;;3.60;;
43813;SDS011;29669;55.706;37.656;2023-08-01T12:24:13;9.15;;;4.13;;
43813;SDS011;29669;55.706;37.656;2023-08-01T12:26:42;9.45;;;3.92;;
43813;SDS011;29669;55.706;37.656;2023-08-01T12:29:11;5.50;;;4.75;;
43813;SDS011;29669;55.706;37.656;2023-08-01T12:31:39;6.43;;;4.45;;
43813;SDS011;29669;55.706;37.656;2023-08-01T12:34:07;6.60;;;4.43;;
43813;SDS011;29669;55.706;37.656;2023-08-01T12:36:35;15.15;;;4.43;;
43813;SDS011;29669;55.706;37.656;2023-08-01T12:39:03;8.50;;;3.85;;
43813;SDS011;29669;55.706;37.656;2023-08-01T12:41:34;5.70;;;4.20;;
43813;SDS011;29669;55.706;37.656;2023-08-01T12:44:03;6.50;;;3.95;;
43813;SDS011;29669;55.706;37.656;2023-08-01T12:46:31;11.40;;;4.03;;
43813;SDS011;29669;55.706;37.656;2023-08-01T12:49:00;14.57;;;4.07;;
43813;SDS011;29669;55.706;37.656;2023-08-01T12:51:28;7.88;;;4.55;;
43813;SDS011;29669;55.706;37.656;2023-08-01T12:53:56;5.97;;;3.70;;
43813;SDS011;29669;55.706;37.656;2023-08-01T12:56:27;7.07;;;3.63;;
43813;SDS011;29669;55.706;37.656;2023-08-01T12:58:56;6.82;;;4.07;;
43813;SDS011;29669;55.706;37.656;2023-08-01T13:01:38;9.45;;;4.07;;
43813;SDS011;29669;55.706;37.656;2023-08-01T13:04:09;7.75;;;4.05;;
43813;SDS011;29669;55.706;37.656;2023-08-01T13:06:39;8.15;;;4.10;;
43813;SDS011;29669;55.706;37.656;2023-08-01T13:09:08;8.52;;;4.75;;
43813;SDS011;29669;55.706;37.656;2023-08-01T13:11:36;6.30;;;4.43;;
43813;SDS011;29669;55.706;37.656;2023-08-01T13:14:04;8.60;;;4.93;;
43813;SDS011;29669;55.706;37.656;2023-08-01T13:16:32;5.68;;;4.20;;
43813;SDS011;29669;55.706;37.656;2023-08-01T13:18:59;6.10;;;3.83;;
43813;SDS011;29669;55.706;37.656;2023-08-01T13:21:27;6.45;;;4.47;;
43813;SDS011;29669;55.706;37.656;2023-08-01T13:23:55;7.32;;;4.35;;
43813;SDS011;29669;55.706;37.656;2023-08-01T13:26:26;5.35;;;3.70;;
43813;SDS011;29669;55.706;37.656;2023-08-01T13:28:57;11.70;;;4.35;;
43813;SDS011;29669;55.706;37.656;2023-08-01T13:31:28;10.90;;;4.50;;
43813;SDS011;29669;55.706;37.656;2023-08-01T13:33:57;8.10;;;4.22;;
43813;SDS011;29669;55.706;37.656;2023-08-01T13:36:25;7.13;;;4.30;;
43813;SDS011;29669;55.706;37.656;2023-08-01T13:38:53;12.13;;;4.70;;
43813;SDS011;29669;55.706;37.656;2023-08-01T13:41:21;12.05;;;4.53;;
43813;SDS011;29669;55.706;37.656;2023-08-01T13:43:49;15.68;;;3.95;;
43813;SDS011;29669;55.706;37.656;2023-08-01T13:46:17;7.43;;;3.88;;
43813;SDS011;29669;55.706;37.656;2023-08-01T13:48:56;6.78;;;4.05;;
43813;SDS011;29669;55.706;37.656;2023-08-01T13:51:24;9.10;;;3.78;;
43813;SDS011;29669;55.706;37.656;2023-08-01T13:53:52;4.95;;;3.70;;
43813;SDS011;29669;55.706;37.656;2023-08-01T13:56:20;9.05;;;4.47;;
43813;SDS011;29669;55.706;37.656;2023-08-01T13:58:49;18.73;;;6.07;;
43813;SDS011;29669;55.706;37.656;2023-08-01T14:01:17;3.72;;;3.42;;
43813;SDS011;29669;55.706;37.656;2023-08-01T14:03:48;18.45;;;5.25;;
43813;SDS011;29669;55.706;37.656;2023-08-01T14:06:15;6.60;;;3.78;;
43813;SDS011;29669;55.706;37.656;2023-08-01T14:08:43;11.57;;;4.30;;
43813;SDS011;29669;55.706;37.656;2023-08-01T14:11:11;10.45;;;4.47;;
43813;SDS011;29669;55.706;37.656;2023-08-01T14:13:39;14.40;;;4.82;;
43813;SDS011;29669;55.706;37.656;2023-08-01T14:16:06;9.27;;;3.92;;
43813;SDS011;29669;55.706;37.656;2023-08-01T14:18:34;7.50;;;4.25;;
43813;SDS011;29669;55.706;37.656;2023-08-01T14:21:02;6.85;;;4.88;;
43813;SDS011;29669;55.706;37.656;2023-08-01T14:23:30;12.02;;;4.03;;
43813;SDS011;29669;55.706;37.656;2023-08-01T14:25:58;7.68;;;3.55;;
43813;SDS011;29669;55.706;37.656;2023-08-01T14:28:25;10.50;;;3.60;;
43813;SDS011;29669;55.706;37.656;2023-08-01T14:30:53;10.07;;;4.70;;
43813;SDS011;29669;55.706;37.656;2023-08-01T14:33:21;8.75;;;4.10;;
43813;SDS011;29669;55.706;37.656;2023-08-01T14:35:49;10.85;;;4.38;;
43813;SDS011;29669;55.706;37.656;2023-08-01T14:38:17;13.55;;;4.50;;
43813;SDS011;29669;55.706;37.656;2023-08-01T14:40:44;4.80;;;3.47;;
43813;SDS011;29669;55.706;37.656;2023-08-01T14:43:28;5.00;;;3.42;;
43813;SDS011;29669;55.706;37.656;2023-08-01T14:45:55;6.15;;;3.90;;
43813;SDS011;29669;55.706;37.656;2023-08-01T14:48:24;8.27;;;3.35;;